Time;durP1;ratioP1;P1;durP2;ratioP2;P2;SDS_P1;SDS_P2;PMS_P1;PMS_P2;Temp;Humidity;BMP_temperature;BMP_pressure;BME280_temperature;BME280_humidity;BME280_pressure;Samples;Min_cycle;Max_cycle;Signal;HPM_P1;HPM_P2
2021/08/23 00:01:54;;;;;;;3.50;1.85;;;16.70;99.90;;;;;;5092621;28;20032;-60
2021/08/23 00:04:20;;;;;;;2.00;1.60;;;16.70;99.90;;;;;;5092882;28;20024;-60
2021/08/23 00:06:46;;;;;;;2.30;1.40;;;16.70;99.90;;;;;;5091541;28;20044;-61
2021/08/23 00:09:11;;;;;;;5.18;2.15;;;16.70;99.90;;;;;;5090041;28;20073;-61
2021/08/23 00:11:37;;;;;;;3.10;1.83;;;16.80;99.90;;;;;;5091642;28;20040;-60
2021/08/23 00:14:03;;;;;;;2.65;1.95;;;16.80;99.90;;;;;;5092264;28;20028;-60
2021/08/23 00:16:28;;;;;;;4.15;1.38;;;16.80;99.90;;;;;;5092515;28;20031;-60
2021/08/23 00:18:54;;;;;;;2.85;1.38;;;16.70;99.90;;;;;;5091610;28;20028;-60
2021/08/23 00:21:24;;;;;;;3.63;1.35;;;16.70;99.90;;;;;;5091170;28;20044;-60
2021/08/23 00:23:54;;;;;;;7.88;1.65;;;16.60;99.90;;;;;;5091298;28;20381;-68
2021/08/23 00:26:21;;;;;;;2.90;1.85;;;16.60;99.90;;;;;;5091335;28;20400;-61
2021/08/23 00:28:47;;;;;;;1.98;1.40;;;16.40;99.90;;;;;;5091588;28;20067;-61
2021/08/23 00:31:13;;;;;;;5.47;1.23;;;16.30;99.90;;;;;;5091981;28;20085;-61
2021/08/23 00:33:39;;;;;;;2.53;1.42;;;16.30;99.90;;;;;;5090803;28;20024;-61
2021/08/23 00:36:04;;;;;;;1.58;1.45;;;16.40;99.90;;;;;;5089343;28;20032;-61
2021/08/23 00:38:30;;;;;;;9.48;2.03;;;16.40;99.90;;;;;;5092030;28;20077;-61
2021/08/23 00:40:56;;;;;;;3.85;1.92;;;16.30;99.90;;;;;;5090179;28;20447;-61
2021/08/23 00:43:21;;;;;;;3.60;2.00;;;16.10;99.90;;;;;;5092410;28;20507;-61
2021/08/23 00:45:47;;;;;;;7.32;2.13;;;16.10;99.90;;;;;;5092019;28;20035;-61
2021/08/23 00:48:12;;;;;;;2.25;1.75;;;16.10;99.90;;;;;;5091355;28;20047;-61
2021/08/23 00:50:39;;;;;;;2.47;2.10;;;16.10;99.90;;;;;;5092211;28;20072;-61
2021/08/23 00:53:05;;;;;;;5.63;2.30;;;16.00;99.90;;;;;;5090117;28;20032;-61
2021/08/23 00:55:32;;;;;;;4.65;1.98;;;16.00;99.90;;;;;;5090558;28;20032;-60
2021/08/23 00:57:58;;;;;;;5.68;1.90;;;16.00;99.90;;;;;;5089831;28;20020;-61
2021/08/23 01:00:24;;;;;;;5.90;1.60;;;16.10;99.90;;;;;;5091684;28;20481;-60
2021/08/23 01:03:16;;;;;;;5.55;2.50;;;16.10;99.90;;;;;;5091999;28;20020;-60
2021/08/23 01:05:43;;;;;;;7.25;1.98;;;16.20;99.90;;;;;;5090904;28;20028;-61
2021/08/23 01:08:32;;;;;;;5.60;1.95;;;16.10;99.90;;;;;;5090220;28;20090;-61
2021/08/23 01:11:03;;;;;;;12.20;1.83;;;16.20;99.90;;;;;;5090377;28;20031;-61
2021/08/23 01:13:29;;;;;;;;;;;16.40;99.90;;;;;;5090862;28;20024;-60
2021/08/23 01:15:55;;;;;;;2.55;1.80;;;16.40;99.90;;;;;;5091472;28;19904;-61
2021/08/23 01:18:21;;;;;;;2.35;1.95;;;16.50;99.90;;;;;;5090564;28;20114;-60
2021/08/23 01:20:49;;;;;;;2.47;2.00;;;16.60;99.90;;;;;;5090044;28;20512;-60
2021/08/23 01:23:14;;;;;;;12.10;2.33;;;16.60;99.90;;;;;;5089893;28;20032;-60
2021/08/23 01:25:43;;;;;;;3.92;2.20;;;16.60;99.90;;;;;;5091379;28;20039;-61
2021/08/23 01:28:11;;;;;;;10.90;2.65;;;16.70;99.90;;;;;;5089880;28;20386;-61
2021/08/23 01:30:44;;;;;;;3.15;2.17;;;16.60;99.90;;;;;;5091789;28;20027;-60
2021/08/23 01:33:10;;;;;;;4.63;2.30;;;16.50;99.90;;;;;;5089845;28;20085;-61
2021/08/23 01:35:37;;;;;;;5.70;1.77;;;16.40;99.90;;;;;;5091383;28;20043;-60
2021/08/23 01:38:03;;;;;;;3.60;1.77;;;16.40;99.90;;;;;;5090823;28;20481;-61
2021/08/23 01:40:29;;;;;;;4.35;2.28;;;16.50;99.90;;;;;;5091820;28;20032;-61
2021/08/23 01:42:54;;;;;;;8.65;1.95;;;16.50;99.90;;;;;;5091265;28;20028;-61
2021/08/23 01:45:20;;;;;;;4.57;2.17;;;16.40;99.90;;;;;;5089713;28;20036;-60
2021/08/23 01:47:45;;;;;;;5.53;2.17;;;16.40;99.90;;;;;;5091377;28;20541;-61
2021/08/23 01:50:11;;;;;;;6.03;2.30;;;16.40;99.90;;;;;;5090478;28;20027;-60
2021/08/23 01:52:36;;;;;;;4.22;2.10;;;16.40;99.90;;;;;;5089919;28;20582;-61
2021/08/23 01:55:02;;;;;;;4.35;2.45;;;16.40;99.90;;;;;;5089234;28;20028;-61
2021/08/23 01:57:28;;;;;;;3.08;2.25;;;16.50;99.90;;;;;;5089816;28;20450;-60
2021/08/23 01:59:54;;;;;;;4.45;2.20;;;16.40;99.90;;;;;;5089783;28;20024;-60
2021/08/23 02:02:19;;;;;;;6.13;2.60;;;16.50;99.90;;;;;;5091302;28;20035;-61
2021/08/23 02:04:45;;;;;;;5.10;2.20;;;16.40;99.90;;;;;;5091079;28;20024;-61
2021/08/23 02:07:11;;;;;;;16.70;2.45;;;16.40;99.90;;;;;;5089308;28;20445;-61
2021/08/23 02:09:37;;;;;;;6.88;2.45;;;16.40;99.90;;;;;;5091246;28;20024;-61
2021/08/23 02:12:03;;;;;;;4.40;2.22;;;16.40;99.90;;;;;;5090571;28;20081;-61
2021/08/23 02:14:29;;;;;;;3.92;1.70;;;16.40;99.90;;;;;;5090802;28;20028;-61
2021/08/23 02:16:55;;;;;;;8.38;2.55;;;16.30;99.90;;;;;;5090966;28;20115;-61
2021/08/23 02:19:20;;;;;;;6.03;2.20;;;16.30;99.90;;;;;;5091083;28;20052;-61
2021/08/23 02:21:50;;;;;;;4.22;2.13;;;16.30;99.90;;;;;;5090605;28;20079;-60
2021/08/23 02:24:17;;;;;;;2.88;2.38;;;16.20;99.90;;;;;;5088891;28;20123;-60
2021/08/23 02:26:42;;;;;;;2.97;1.80;;;16.20;99.90;;;;;;5090907;28;20081;-60
2021/08/23 02:29:08;;;;;;;5.80;1.83;;;16.30;99.90;;;;;;5090358;28;20115;-61
2021/08/23 02:31:34;;;;;;;3.05;1.90;;;16.40;99.90;;;;;;5091131;28;20355;-62
2021/08/23 02:33:59;;;;;;;3.25;1.88;;;16.30;99.90;;;;;;5090306;28;20024;-61
2021/08/23 02:36:25;;;;;;;5.03;2.00;;;16.40;99.90;;;;;;5090950;28;20078;-60
2021/08/23 02:38:51;;;;;;;8.15;2.30;;;16.30;99.90;;;;;;5091013;28;20165;-60
2021/08/23 02:41:16;;;;;;;5.60;2.60;;;16.20;99.90;;;;;;5090422;28;20051;-61
2021/08/23 02:43:42;;;;;;;7.15;3.00;;;16.10;99.90;;;;;;5089603;28;20122;-61
2021/08/23 02:46:08;;;;;;;2.83;2.30;;;16.20;99.90;;;;;;5089818;28;20039;-61
2021/08/23 02:48:33;;;;;;;1.95;1.75;;;16.10;99.90;;;;;;5089537;28;20119;-61
2021/08/23 02:50:59;;;;;;;4.30;2.58;;;16.10;99.90;;;;;;5090589;28;20040;-61
2021/08/23 02:53:25;;;;;;;5.70;1.80;;;16.10;99.90;;;;;;5090615;28;20190;-61
2021/08/23 02:55:50;;;;;;;4.25;2.33;;;16.20;99.90;;;;;;5090667;28;20035;-61
2021/08/23 02:58:16;;;;;;;3.88;2.33;;;16.30;99.90;;;;;;5090002;28;20085;-61
2021/08/23 03:00:41;;;;;;;5.95;2.45;;;16.20;99.90;;;;;;5094149;28;20508;-61
2021/08/23 03:03:07;;;;;;;3.33;2.28;;;16.20;99.90;;;;;;5093818;28;20024;-60
2021/08/23 03:05:33;;;;;;;5.57;2.72;;;16.20;99.90;;;;;;5094130;28;20064;-61
2021/08/23 03:07:58;;;;;;;9.48;3.40;;;16.20;99.90;;;;;;5092370;28;20028;-67
2021/08/23 03:10:24;;;;;;;3.78;2.38;;;16.20;99.90;;;;;;5081180;28;20029;-64
2021/08/23 03:12:50;;;;;;;4.28;2.03;;;16.10;99.90;;;;;;5072997;28;20394;-61
2021/08/23 03:15:15;;;;;;;4.10;2.47;;;16.10;99.90;;;;;;5073055;28;20112;-60
2021/08/23 03:17:41;;;;;;;4.43;2.58;;;16.10;99.90;;;;;;5073903;28;20024;-61
2021/08/23 03:20:07;;;;;;;6.30;2.50;;;16.10;99.90;;;;;;5071989;28;20029;-61
2021/08/23 03:22:33;;;;;;;4.28;2.58;;;16.20;99.90;;;;;;5074112;28;20109;-61
2021/08/23 03:24:58;;;;;;;3.05;2.75;;;16.20;99.90;;;;;;5073759;28;20032;-60
2021/08/23 03:27:24;;;;;;;2.97;2.40;;;16.20;99.90;;;;;;5072401;28;20118;-61
2021/08/23 03:29:51;;;;;;;4.72;2.58;;;16.20;99.90;;;;;;5072283;28;20032;-61
2021/08/23 03:32:17;;;;;;;4.97;2.33;;;16.20;99.90;;;;;;5073328;28;20023;-59
2021/08/23 03:34:43;;;;;;;5.30;2.55;;;16.10;99.90;;;;;;5073185;28;20112;-60
2021/08/23 03:37:09;;;;;;;6.13;2.80;;;16.10;99.90;;;;;;5072918;28;20110;-60
2021/08/23 03:39:35;;;;;;;4.32;2.20;;;16.10;99.90;;;;;;5072181;28;20044;-60
2021/08/23 03:42:01;;;;;;;7.50;2.92;;;16.10;99.90;;;;;;5071414;28;20052;-63
2021/08/23 03:44:26;;;;;;;7.90;2.50;;;16.10;99.90;;;;;;5071999;28;20025;-61
2021/08/23 03:46:52;;;;;;;3.55;2.45;;;16.20;99.90;;;;;;5073283;28;20481;-61
2021/08/23 03:49:18;;;;;;;5.47;2.55;;;16.20;99.90;;;;;;5072805;28;20017;-61
2021/08/23 03:51:44;;;;;;;5.53;2.70;;;16.30;99.90;;;;;;5073159;28;20512;-60
2021/08/23 03:54:09;;;;;;;5.88;2.47;;;16.30;99.90;;;;;;5072653;28;20492;-61
2021/08/23 03:56:35;;;;;;;7.45;3.15;;;16.40;99.90;;;;;;5073773;28;20528;-61
2021/08/23 03:59:01;;;;;;;6.32;2.90;;;16.50;99.90;;;;;;5085222;28;20478;-67
2021/08/23 04:01:26;;;;;;;4.97;2.65;;;16.50;99.90;;;;;;5076980;28;20021;-61
2021/08/23 04:03:52;;;;;;;6.38;3.13;;;16.40;99.90;;;;;;5072683;28;20081;-60
2021/08/23 04:06:18;;;;;;;9.98;3.35;;;16.40;99.90;;;;;;5073259;28;20090;-61
2021/08/23 04:08:44;;;;;;;5.30;2.50;;;16.30;99.90;;;;;;5072711;28;20044;-60
2021/08/23 04:11:14;;;;;;;8.90;3.28;;;16.30;99.90;;;;;;5070889;28;20082;-60
2021/08/23 04:13:41;;;;;;;8.60;2.85;;;16.20;99.90;;;;;;5073162;28;20065;-60
2021/08/23 04:16:14;;;;;;;8.40;3.50;;;16.20;99.90;;;;;;5072396;28;20146;-63
2021/08/23 04:18:40;;;;;;;4.00;2.95;;;16.20;99.90;;;;;;5073107;28;20016;-63
2021/08/23 04:21:06;;;;;;;5.28;2.53;;;16.30;99.90;;;;;;5070486;28;20049;-63
2021/08/23 04:23:32;;;;;;;5.30;2.78;;;16.30;99.90;;;;;;5073138;28;20456;-63
2021/08/23 04:25:57;;;;;;;3.92;2.55;;;16.40;99.90;;;;;;5073018;28;20119;-63
2021/08/23 04:28:23;;;;;;;4.38;2.83;;;16.30;99.90;;;;;;5071889;28;20039;-63
2021/08/23 04:30:49;;;;;;;3.63;3.00;;;16.20;99.90;;;;;;5072591;28;20347;-63
2021/08/23 04:33:16;;;;;;;6.97;3.38;;;16.20;99.90;;;;;;5070588;28;20081;-63
2021/08/23 04:35:42;;;;;;;4.15;2.85;;;16.20;99.90;;;;;;5071218;28;20020;-62
2021/08/23 04:38:07;;;;;;;3.92;3.38;;;16.20;99.90;;;;;;5070378;28;20116;-63
2021/08/23 04:40:33;;;;;;;3.50;3.05;;;16.40;99.90;;;;;;5071122;28;20021;-63
2021/08/23 04:42:59;;;;;;;8.25;3.10;;;16.40;99.90;;;;;;5072175;28;20032;-64
2021/08/23 04:45:25;;;;;;;5.50;2.83;;;16.40;99.90;;;;;;5071726;28;20046;-63
2021/08/23 04:47:51;;;;;;;14.23;3.45;;;16.40;99.90;;;;;;5070854;28;20107;-63
2021/08/23 04:50:17;;;;;;;4.10;2.85;;;16.30;99.90;;;;;;5071792;28;20513;-63
2021/08/23 04:52:43;;;;;;;6.00;3.40;;;16.30;99.90;;;;;;5070758;28;20419;-63
2021/08/23 04:55:09;;;;;;;5.43;2.85;;;16.30;99.90;;;;;;5071658;28;20335;-64
2021/08/23 04:57:35;;;;;;;4.57;3.13;;;16.40;99.90;;;;;;5072032;28;20042;-63
2021/08/23 05:00:00;;;;;;;8.38;3.03;;;16.40;99.90;;;;;;5071981;28;20445;-64
2021/08/23 05:02:26;;;;;;;5.60;2.80;;;16.60;99.90;;;;;;5068608;28;20536;-65
2021/08/23 05:04:52;;;;;;;8.88;3.15;;;16.60;99.90;;;;;;5071090;28;20029;-64
2021/08/23 05:07:17;;;;;;;4.63;3.03;;;16.60;99.90;;;;;;5069345;28;20385;-64
2021/08/23 05:09:43;;;;;;;3.85;2.60;;;16.60;99.90;;;;;;5070774;28;20033;-64
2021/08/23 05:12:09;;;;;;;5.07;2.85;;;16.60;99.90;;;;;;5085801;28;20208;-69
2021/08/23 05:14:34;;;;;;;5.68;2.95;;;16.70;99.90;;;;;;5071187;28;20032;-64
2021/08/23 05:17:00;;;;;;;6.43;3.25;;;16.70;99.90;;;;;;5071249;28;20111;-64
2021/08/23 05:19:25;;;;;;;6.20;3.05;;;16.60;99.90;;;;;;5068793;28;20102;-64
2021/08/23 05:21:51;;;;;;;5.40;2.88;;;16.60;99.90;;;;;;5068936;28;20474;-64
2021/08/23 05:24:17;;;;;;;7.55;3.38;;;16.60;99.90;;;;;;5069007;28;20094;-64
2021/08/23 05:26:42;;;;;;;5.85;2.75;;;16.60;99.90;;;;;;5070493;28;20032;-64
2021/08/23 05:29:08;;;;;;;7.50;3.70;;;16.60;99.90;;;;;;5069524;28;20082;-69
2021/08/23 05:31:34;;;;;;;10.65;3.58;;;16.80;99.90;;;;;;5069055;28;20155;-64
2021/08/23 05:33:59;;;;;;;9.75;4.13;;;16.70;99.90;;;;;;5069249;28;20341;-64
2021/08/23 05:36:25;;;;;;;4.45;3.03;;;16.90;99.90;;;;;;5069674;28;20401;-64
2021/08/23 05:38:50;;;;;;;7.72;3.80;;;17.00;99.90;;;;;;5070561;28;20029;-64
2021/08/23 05:41:16;;;;;;;8.07;3.33;;;17.00;99.90;;;;;;5069370;28;20040;-64
2021/08/23 05:43:42;;;;;;;5.50;3.05;;;17.00;99.90;;;;;;5069278;28;20120;-64
2021/08/23 05:46:09;;;;;;;6.15;3.38;;;17.00;99.90;;;;;;5070279;28;20048;-71
2021/08/23 05:48:35;;;;;;;5.22;3.10;;;17.00;99.90;;;;;;5069134;28;20500;-65
2021/08/23 05:51:02;;;;;;;8.02;4.50;;;16.90;99.90;;;;;;5068997;28;20029;-64
2021/08/23 05:53:27;;;;;;;5.10;3.30;;;16.90;99.90;;;;;;5068247;28;20032;-64
2021/08/23 05:55:53;;;;;;;8.15;3.83;;;16.80;99.90;;;;;;5070524;28;20040;-64
2021/08/23 05:58:19;;;;;;;5.82;3.78;;;16.80;99.90;;;;;;5067465;28;20024;-64
2021/08/23 06:00:45;;;;;;;9.32;4.38;;;16.70;99.90;;;;;;5070124;28;20024;-64
2021/08/23 06:03:10;;;;;;;4.32;3.42;;;16.80;99.90;;;;;;5068616;28;20027;-70
2021/08/23 06:05:38;;;;;;;6.60;3.80;;;16.80;99.90;;;;;;5068492;28;20469;-63
2021/08/23 06:08:06;;;;;;;16.13;3.70;;;17.00;99.90;;;;;;5069021;28;20030;-64
2021/08/23 06:10:32;;;;;;;7.03;3.72;;;17.00;99.90;;;;;;5069529;28;20568;-64
2021/08/23 06:12:57;;;;;;;8.85;3.95;;;17.10;99.90;;;;;;5068989;28;20146;-63
2021/08/23 06:15:23;;;;;;;5.68;3.90;;;17.10;99.90;;;;;;5069156;28;20033;-64
2021/08/23 06:17:49;;;;;;;6.43;3.53;;;17.20;99.90;;;;;;5068837;28;20434;-64
2021/08/23 06:20:15;;;;;;;7.88;3.80;;;17.40;99.90;;;;;;5069076;28;20056;-64
2021/08/23 06:22:43;;;;;;;11.73;3.70;;;17.50;99.90;;;;;;5070032;28;20402;-63
2021/08/23 06:25:09;;;;;;;3.80;3.22;;;17.50;99.90;;;;;;5068626;28;20103;-64
2021/08/23 06:27:35;;;;;;;5.53;3.75;;;17.60;99.90;;;;;;5067705;28;20032;-64
2021/08/23 06:30:02;;;;;;;7.90;4.00;;;17.70;99.90;;;;;;5068736;28;20134;-64
2021/08/23 06:32:28;;;;;;;6.20;4.32;;;18.10;99.90;;;;;;5069735;28;20051;-64
2021/08/23 06:34:54;;;;;;;7.30;4.28;;;18.00;99.90;;;;;;5073692;28;20598;-64
2021/08/23 06:37:20;;;;;;;8.80;3.58;;;18.10;99.90;;;;;;5071520;28;20032;-63
2021/08/23 06:39:46;;;;;;;5.60;4.22;;;18.20;99.90;;;;;;5074217;28;20527;-64
2021/08/23 06:42:11;;;;;;;7.28;4.30;;;18.30;99.90;;;;;;5073449;28;20470;-72
2021/08/23 06:44:37;;;;;;;5.25;4.30;;;18.50;99.90;;;;;;5071924;28;20030;-64
2021/08/23 06:47:03;;;;;;;6.15;4.07;;;18.60;99.90;;;;;;5071885;28;20401;-64
2021/08/23 06:49:28;;;;;;;5.18;4.20;;;18.70;99.90;;;;;;5071455;28;20032;-64
2021/08/23 06:51:54;;;;;;;5.05;3.70;;;18.80;99.90;;;;;;5072047;28;20044;-64
2021/08/23 06:54:20;;;;;;;5.57;4.30;;;18.80;99.90;;;;;;5072413;28;20024;-65
2021/08/23 06:56:45;;;;;;;9.68;4.13;;;18.90;99.90;;;;;;5073265;28;20029;-64
2021/08/23 06:59:11;;;;;;;5.13;3.80;;;19.00;99.90;;;;;;5071831;28;20024;-65
2021/08/23 07:01:37;;;;;;;8.75;4.72;;;19.10;99.90;;;;;;5071610;28;20043;-64
2021/08/23 07:04:03;;;;;;;7.68;3.78;;;19.00;99.90;;;;;;5072308;28;20028;-64
2021/08/23 07:06:29;;;;;;;6.20;3.90;;;19.10;99.90;;;;;;5072196;28;20429;-64
2021/08/23 07:08:54;;;;;;;8.90;4.55;;;19.00;99.90;;;;;;5071611;28;20040;-64
2021/08/23 07:11:20;;;;;;;7.75;4.43;;;19.00;99.90;;;;;;5072862;28;20110;-65
2021/08/23 07:13:46;;;;;;;4.40;3.45;;;19.10;99.90;;;;;;5071744;28;20338;-63
2021/08/23 07:16:12;;;;;;;6.07;4.35;;;19.40;99.90;;;;;;5073550;28;20040;-64
2021/08/23 07:18:37;;;;;;;6.90;4.50;;;19.60;99.90;;;;;;5072344;28;20031;-64
2021/08/23 07:21:04;;;;;;;11.65;4.57;;;19.80;99.90;;;;;;5072517;28;20501;-64
2021/08/23 07:23:29;;;;;;;4.38;3.80;;;20.10;99.90;;;;;;5070925;28;20119;-64
2021/08/23 07:25:56;;;;;;;7.20;4.30;;;20.50;99.90;;;;;;5072122;28;20119;-64
2021/08/23 07:28:21;;;;;;;6.05;4.45;;;20.70;99.90;;;;;;5070822;28;20492;-64
2021/08/23 07:30:47;;;;;;;5.90;4.40;;;20.80;99.90;;;;;;5072568;28;20024;-64
2021/08/23 07:33:13;;;;;;;5.50;4.85;;;20.80;99.90;;;;;;5071257;28;20093;-64
2021/08/23 07:35:39;;;;;;;4.93;4.13;;;20.80;99.90;;;;;;5072069;28;20037;-64
2021/08/23 07:38:04;;;;;;;6.45;4.50;;;21.10;99.90;;;;;;5072833;28;20024;-64
2021/08/23 07:40:30;;;;;;;10.68;4.35;;;21.40;99.90;;;;;;5070553;28;20024;-65
2021/08/23 07:42:56;;;;;;;8.68;4.65;;;21.50;99.90;;;;;;5071133;28;20031;-64
2021/08/23 07:45:23;;;;;;;5.90;4.65;;;21.70;99.90;;;;;;5069768;28;20052;-65
2021/08/23 07:47:48;;;;;;;5.07;4.20;;;22.00;99.90;;;;;;5070876;28;20486;-64
2021/08/23 07:50:15;;;;;;;8.05;4.30;;;22.20;99.90;;;;;;5072422;28;20056;-65
2021/08/23 07:52:41;;;;;;;6.60;3.55;;;22.40;99.90;;;;;;5070367;28;20039;-65
2021/08/23 07:55:08;;;;;;;5.10;4.32;;;22.70;99.90;;;;;;5072411;28;20024;-65
2021/08/23 07:57:44;;;;;;;6.07;4.25;;;23.00;99.90;;;;;;5069429;28;20473;-65
2021/08/23 08:00:11;;;;;;;4.70;4.28;;;23.20;99.90;;;;;;5070991;28;20102;-65
2021/08/23 08:02:36;;;;;;;8.30;4.60;;;23.40;99.90;;;;;;5071627;28;20109;-65
2021/08/23 08:05:02;;;;;;;7.32;3.97;;;23.30;99.90;;;;;;5070584;28;20067;-65
2021/08/23 08:07:28;;;;;;;5.43;4.00;;;23.30;99.90;;;;;;5072052;28;20078;-65
2021/08/23 08:09:54;;;;;;;5.28;4.63;;;23.60;99.90;;;;;;5070864;28;20025;-65
2021/08/23 08:12:19;;;;;;;5.82;4.72;;;23.60;99.90;;;;;;5069707;28;20029;-72
2021/08/23 08:14:45;;;;;;;4.80;4.30;;;23.70;99.90;;;;;;5072289;28;20024;-65
2021/08/23 08:17:11;;;;;;;5.13;4.63;;;23.50;99.90;;;;;;5070609;28;20040;-65
2021/08/23 08:19:38;;;;;;;5.78;5.00;;;23.10;99.90;;;;;;5068795;28;20029;-65
2021/08/23 08:22:05;;;;;;;4.45;4.05;;;23.20;99.90;;;;;;5070091;28;20049;-64
2021/08/23 08:24:32;;;;;;;5.05;4.03;;;23.20;99.90;;;;;;5071295;28;20020;-65
2021/08/23 08:26:58;;;;;;;8.95;4.07;;;23.10;99.90;;;;;;5070432;28;20132;-65
2021/08/23 08:29:23;;;;;;;6.88;4.40;;;22.80;99.90;;;;;;5070916;28;20043;-65
2021/08/23 08:31:49;;;;;;;4.57;4.05;;;22.90;99.90;;;;;;5071512;28;20529;-65
2021/08/23 08:34:14;;;;;;;7.78;4.15;;;23.40;99.90;;;;;;5069792;28;20032;-65
2021/08/23 08:36:40;;;;;;;6.82;4.30;;;23.70;99.90;;;;;;5069558;28;20504;-65
2021/08/23 08:39:06;;;;;;;4.78;4.32;;;24.20;99.90;;;;;;5070345;28;20036;-65
2021/08/23 08:41:32;;;;;;;4.95;3.83;;;24.30;99.90;;;;;;5070802;28;20033;-66
2021/08/23 08:44:00;;;;;;;5.60;4.05;;;24.60;99.90;;;;;;5070378;28;20035;-66
2021/08/23 08:46:26;;;;;;;6.05;4.57;;;24.70;99.90;;;;;;5070375;28;20100;-66
2021/08/23 08:48:51;;;;;;;5.85;3.75;;;24.80;99.90;;;;;;5069952;28;20016;-65
2021/08/23 08:51:18;;;;;;;5.68;3.83;;;24.90;99.90;;;;;;5069680;28;20316;-65
2021/08/23 08:53:44;;;;;;;3.75;3.22;;;25.10;99.60;;;;;;5069522;28;20117;-66
2021/08/23 08:56:10;;;;;;;5.43;3.65;;;25.40;99.40;;;;;;5070155;28;20071;-65
2021/08/23 08:58:36;;;;;;;4.50;3.30;;;25.10;99.50;;;;;;5069990;28;20396;-65
2021/08/23 09:01:04;;;;;;;4.03;3.00;;;24.80;99.90;;;;;;5069310;28;20055;-65
2021/08/23 09:03:30;;;;;;;4.15;3.72;;;24.30;99.90;;;;;;5068516;28;20022;-65
2021/08/23 09:06:06;;;;;;;4.10;2.90;;;24.00;99.90;;;;;;5070933;28;20040;-66
2021/08/23 09:08:39;;;;;;;6.22;4.65;;;23.90;99.90;;;;;;5068924;28;20028;-66
2021/08/23 09:11:13;;;;;;;6.35;3.42;;;23.70;99.90;;;;;;5069375;28;20446;-65
2021/08/23 09:13:41;;;;;;;10.75;4.38;;;23.70;99.90;;;;;;5068138;28;20052;-65
2021/08/23 09:16:07;;;;;;;6.40;4.22;;;23.40;99.90;;;;;;5070219;28;20432;-65
2021/08/23 09:18:35;;;;;;;4.60;3.30;;;23.60;99.90;;;;;;5069299;28;20021;-65
2021/08/23 09:21:02;;;;;;;8.23;3.50;;;23.80;99.90;;;;;;5068960;28;20048;-65
2021/08/23 09:23:39;;;;;;;4.05;3.63;;;23.90;99.90;;;;;;5068623;28;20451;-65
2021/08/23 09:26:10;;;;;;;4.07;3.40;;;24.00;99.90;;;;;;5069213;28;20036;-65
2021/08/23 09:28:36;;;;;;;;;;;24.00;99.90;;;;;;5068947;28;20032;-65
2021/08/23 09:31:03;;;;;;;4.22;3.05;;;23.90;99.90;;;;;;5069148;28;19904;-65
2021/08/23 09:33:29;;;;;;;4.50;3.35;;;23.90;99.90;;;;;;5067916;28;20024;-65
2021/08/23 09:35:55;;;;;;;5.78;3.67;;;23.60;99.90;;;;;;5068868;28;20105;-65
2021/08/23 09:38:21;;;;;;;6.32;3.70;;;23.50;99.90;;;;;;5070265;28;20457;-71
2021/08/23 09:40:48;;;;;;;4.57;3.25;;;23.40;99.90;;;;;;5068226;28;20130;-65
2021/08/23 09:43:16;;;;;;;4.22;2.80;;;23.20;99.90;;;;;;5068727;28;20381;-64
2021/08/23 09:45:49;;;;;;;5.22;3.72;;;23.00;99.90;;;;;;5067901;28;20603;-65
2021/08/23 09:48:15;;;;;;;6.70;3.42;;;22.90;99.90;;;;;;5068588;28;20526;-65
2021/08/23 09:50:46;;;;;;;5.95;4.25;;;22.80;99.90;;;;;;5067873;28;20099;-65
2021/08/23 09:53:15;;;;;;;5.22;4.32;;;22.60;99.90;;;;;;5069077;28;20045;-65
2021/08/23 09:55:43;;;;;;;6.80;4.45;;;22.50;99.90;;;;;;5067820;28;20052;-65
2021/08/23 09:58:10;;;;;;;8.27;5.15;;;22.50;99.90;;;;;;5070394;28;20032;-65
2021/08/23 10:00:41;;;;;;;6.93;5.80;;;22.30;99.90;;;;;;5067626;28;20422;-65
2021/08/23 10:03:29;;;;;;;8.20;5.57;;;22.00;99.90;;;;;;5070289;28;20028;-65
2021/08/23 10:05:55;;;;;;;8.18;5.80;;;21.90;99.90;;;;;;5068639;28;20486;-66
2021/08/23 10:08:25;;;;;;;8.45;5.95;;;21.50;99.90;;;;;;5068754;28;20071;-65
2021/08/23 10:10:53;;;;;;;7.22;6.55;;;21.40;99.90;;;;;;5070186;28;20116;-65
2021/08/23 10:13:19;;;;;;;6.70;6.10;;;21.40;99.90;;;;;;5069399;28;20331;-65
2021/08/23 10:15:45;;;;;;;7.25;6.57;;;21.40;99.90;;;;;;5069122;28;20033;-65
2021/08/23 10:18:10;;;;;;;7.72;6.90;;;21.30;99.90;;;;;;5068679;28;20409;-65
2021/08/23 10:20:38;;;;;;;8.65;7.85;;;21.20;99.90;;;;;;5066724;28;20024;-65
2021/08/23 10:23:05;;;;;;;6.80;6.10;;;21.00;99.90;;;;;;5068792;28;20028;-65
2021/08/23 10:25:31;;;;;;;7.28;6.00;;;21.10;99.90;;;;;;5067468;28;20032;-65
2021/08/23 10:28:09;;;;;;;7.35;5.93;;;21.20;99.90;;;;;;5068229;28;20059;-64
2021/08/23 10:30:37;;;;;;;6.45;5.93;;;21.40;99.90;;;;;;5067806;28;20155;-64
2021/08/23 10:33:33;;;;;;;10.38;6.57;;;21.50;99.90;;;;;;5068490;28;20028;-64
2021/08/23 10:35:59;;;;;;;7.40;6.72;;;21.60;99.90;;;;;;5068862;28;20044;-64
2021/08/23 10:38:26;;;;;;;6.50;5.78;;;21.60;99.90;;;;;;5068187;28;20128;-71
2021/08/23 10:41:11;;;;;;;5.85;5.05;;;21.80;99.90;;;;;;5068135;28;20032;-65
2021/08/23 10:43:50;;;;;;;5.22;4.68;;;22.10;99.90;;;;;;5069051;28;20458;-65
2021/08/23 10:46:25;;;;;;;7.80;4.60;;;22.50;99.90;;;;;;5069725;28;20063;-64
2021/08/23 10:48:52;;;;;;;5.97;4.78;;;22.70;99.90;;;;;;5067960;28;20025;-65
2021/08/23 10:51:28;;;;;;;7.30;5.13;;;23.20;99.90;;;;;;5068076;28;20032;-65
2021/08/23 10:53:54;;;;;;;6.35;4.47;;;23.50;99.90;;;;;;5068445;28;20335;-64
2021/08/23 10:56:21;;;;;;;6.78;5.78;;;23.90;99.90;;;;;;5068310;28;20032;-66
2021/08/23 10:58:48;;;;;;;4.82;4.30;;;24.40;99.90;;;;;;5067584;28;20074;-66
2021/08/23 11:01:22;;;;;;;4.93;4.53;;;24.60;99.90;;;;;;5069371;28;20037;-65
2021/08/23 11:04:03;;;;;;;5.63;4.97;;;25.00;99.90;;;;;;5068919;28;20262;-66
2021/08/23 11:06:29;;;;;;;7.30;4.32;;;25.40;99.90;;;;;;5067018;28;20123;-72
2021/08/23 11:09:15;;;;;;;9.25;5.63;;;25.10;99.90;;;;;;5069458;28;20100;-66
2021/08/23 11:11:41;;;;;;;4.25;3.85;;;25.50;99.90;;;;;;5066272;28;20109;-67
2021/08/23 11:14:20;;;;;;;5.43;4.43;;;25.60;99.90;;;;;;5069196;28;20024;-65
2021/08/23 11:16:54;;;;;;;9.68;4.57;;;25.50;99.90;;;;;;5067084;28;20039;-66
2021/08/23 11:19:26;;;;;;;9.02;4.68;;;25.40;99.90;;;;;;5069069;28;20123;-66
2021/08/23 11:21:59;;;;;;;5.28;4.22;;;25.20;99.90;;;;;;5070630;28;20056;-65
2021/08/23 11:24:29;;;;;;;8.05;4.05;;;25.50;99.90;;;;;;5071333;28;20024;-66
2021/08/23 11:27:01;;;;;;;5.03;4.47;;;25.90;99.90;;;;;;5070719;28;20557;-65
2021/08/23 11:29:33;;;;;;;4.68;4.22;;;26.30;99.90;;;;;;5071055;28;20036;-72
2021/08/23 11:32:00;;;;;;;4.93;4.47;;;27.10;99.90;;;;;;5072803;28;20021;-67
2021/08/23 11:34:28;;;;;;;4.65;4.13;;;27.50;99.30;;;;;;5071328;28;20381;-66
2021/08/23 11:37:00;;;;;;;4.68;4.15;;;28.00;98.60;;;;;;5071381;28;20035;-66
2021/08/23 11:39:30;;;;;;;6.15;4.15;;;28.40;97.80;;;;;;5080857;28;20021;-66
2021/08/23 11:41:58;;;;;;;5.05;3.40;;;28.70;96.70;;;;;;5092291;28;20051;-65
2021/08/23 11:44:24;;;;;;;6.10;4.75;;;28.90;96.30;;;;;;5093362;28;20036;-66
2021/08/23 11:47:02;;;;;;;5.75;4.75;;;29.10;95.10;;;;;;5090683;28;20062;-66
2021/08/23 11:49:28;;;;;;;6.60;4.20;;;28.80;93.90;;;;;;5093256;28;20020;-65
2021/08/23 11:51:54;;;;;;;5.22;4.60;;;28.90;94.80;;;;;;5092813;28;20035;-66
2021/08/23 11:54:20;;;;;;;4.32;3.95;;;28.80;92.70;;;;;;5092904;28;20106;-66
2021/08/23 11:56:45;;;;;;;5.20;4.70;;;28.40;93.10;;;;;;5090947;28;20028;-67
2021/08/23 11:59:12;;;;;;;6.05;5.35;;;27.80;93.50;;;;;;5091660;28;20025;-69
2021/08/23 12:01:38;;;;;;;6.38;4.32;;;27.60;94.50;;;;;;5092215;28;20024;-67
2021/08/23 12:04:04;;;;;;;4.63;4.18;;;27.50;95.30;;;;;;5091296;28;20077;-66
2021/08/23 12:06:34;;;;;;;4.28;3.80;;;27.80;94.50;;;;;;5090846;28;20039;-70
2021/08/23 12:09:01;;;;;;;6.55;3.60;;;28.20;93.20;;;;;;5091350;28;20030;-66
2021/08/23 12:11:27;;;;;;;3.63;3.13;;;28.60;93.50;;;;;;5091376;28;20039;-66
2021/08/23 12:13:53;;;;;;;10.93;3.72;;;28.70;92.60;;;;;;5091010;28;20028;-66
2021/08/23 12:16:40;;;;;;;3.45;3.15;;;29.10;92.40;;;;;;5093362;28;20028;-66
2021/08/23 12:19:08;;;;;;;4.07;3.60;;;29.30;92.10;;;;;;5091912;28;20494;-66
2021/08/23 12:21:34;;;;;;;3.50;2.85;;;29.60;91.00;;;;;;5090447;28;20089;-67
2021/08/23 12:24:02;;;;;;;5.07;3.28;;;29.70;90.10;;;;;;5091320;28;20119;-66
2021/08/23 12:26:59;;;;;;;8.40;3.55;;;29.30;91.50;;;;;;5092333;28;20481;-66
2021/08/23 12:29:34;;;;;;;4.60;3.40;;;29.30;90.30;;;;;;5091194;28;20071;-66
2021/08/23 12:32:13;;;;;;;3.17;2.88;;;28.80;91.30;;;;;;5090689;28;20036;-67
2021/08/23 12:34:44;;;;;;;4.18;3.33;;;28.60;91.80;;;;;;5092126;28;20373;-67
2021/08/23 12:37:11;;;;;;;4.70;4.30;;;28.10;91.90;;;;;;5090921;28;20392;-67
2021/08/23 12:39:38;;;;;;;5.22;4.65;;;27.50;93.00;;;;;;5090145;28;20053;-67
2021/08/23 12:42:05;;;;;;;4.75;4.25;;;26.70;95.60;;;;;;5091926;28;20063;-67
2021/08/23 12:44:32;;;;;;;3.80;3.50;;;26.00;97.40;;;;;;5091980;28;20028;-74
2021/08/23 12:46:58;;;;;;;3.67;3.30;;;25.10;99.00;;;;;;5091791;28;20032;-66
2021/08/23 12:49:24;;;;;;;3.85;3.45;;;24.60;99.60;;;;;;5092120;28;20444;-68